createdAt,value
2022-08-10T00:01:05.832Z,14.43
2022-08-10T00:03:32.730Z,15.00
2022-08-10T00:05:59.641Z,15.90
2022-08-10T00:08:26.665Z,16.13
2022-08-10T00:10:56.330Z,16.38
2022-08-10T00:13:25.335Z,16.20
2022-08-10T00:15:54.883Z,15.68
2022-08-10T00:18:28.927Z,16.73
2022-08-10T00:21:03.281Z,17.02
2022-08-10T00:23:30.218Z,16.52
2022-08-10T00:25:57.173Z,16.55
2022-08-10T00:28:23.979Z,17.20
2022-08-10T00:30:50.859Z,16.10
2022-08-10T00:33:17.785Z,15.80
2022-08-10T00:35:44.644Z,16.10
2022-08-10T00:38:11.501Z,14.85
2022-08-10T00:40:38.732Z,14.10
2022-08-10T00:43:06.666Z,13.70
2022-08-10T00:45:34.502Z,13.43
2022-08-10T00:48:01.360Z,13.60
2022-08-10T00:50:28.306Z,13.65
2022-08-10T00:52:55.307Z,14.13
2022-08-10T00:55:22.394Z,14.45
2022-08-10T00:57:55.047Z,15.32
2022-08-10T01:00:24.104Z,15.55
2022-08-10T01:02:51.902Z,15.07
2022-08-10T01:05:20.458Z,15.43
2022-08-10T01:08:10.903Z,15.80
2022-08-10T01:10:56.112Z,15.48
2022-08-10T01:13:43.335Z,14.90
2022-08-10T01:16:25.277Z,15.25
2022-08-10T01:19:04.698Z,16.67
2022-08-10T01:21:56.810Z,16.23
2022-08-10T01:24:46.550Z,16.30
2022-08-10T01:27:45.755Z,15.63
2022-08-10T01:30:14.638Z,16.42
2022-08-10T01:33:05.281Z,17.67
2022-08-10T01:35:53.178Z,16.40
2022-08-10T01:38:26.200Z,17.88
2022-08-10T01:41:06.933Z,17.63
2022-08-10T01:43:37.066Z,18.30
2022-08-10T01:46:06.038Z,17.30
2022-08-10T01:48:38.897Z,17.20
2022-08-10T01:51:17.605Z,17.90
2022-08-10T01:53:51.914Z,19.25
2022-08-10T01:56:22.406Z,17.58
2022-08-10T01:58:54.064Z,16.92
2022-08-10T02:01:24.477Z,18.05
2022-08-10T02:04:03.913Z,18.55
2022-08-10T02:06:37.439Z,17.25
2022-08-10T02:09:07.395Z,18.85
2022-08-10T02:11:55.752Z,18.48
2022-08-10T02:14:33.434Z,18.13
2022-08-10T02:17:09.342Z,16.88
2022-08-10T02:20:01.619Z,18.33
2022-08-10T02:22:37.381Z,16.95
2022-08-10T02:25:41.002Z,16.45
2022-08-10T02:28:04.373Z,17.25
2022-08-10T02:30:32.759Z,17.73
2022-08-10T02:33:01.429Z,19.27
2022-08-10T02:35:42.182Z,19.20
2022-08-10T02:38:23.415Z,19.40
2022-08-10T02:45:01.045Z,21.42
2022-08-10T02:45:22.069Z,19.48
2022-08-10T02:47:21.287Z,19.70
2022-08-10T02:49:55.983Z,18.60
2022-08-10T02:52:29.521Z,18.05
2022-08-10T02:55:17.050Z,18.13
2022-08-10T02:58:14.579Z,20.10
2022-08-10T03:00:43.811Z,18.48
2022-08-10T03:03:17.837Z,18.80
2022-08-10T03:05:47.753Z,19.20
2022-08-10T03:08:19.896Z,19.40
2022-08-10T03:10:49.368Z,19.60
2022-08-10T03:13:18.733Z,19.25
2022-08-10T03:15:48.065Z,19.80
2022-08-10T03:18:16.453Z,18.92
2022-08-10T03:20:44.931Z,18.38
2022-08-10T03:23:16.376Z,18.60
2022-08-10T03:25:53.140Z,17.52
2022-08-10T03:28:27.638Z,17.88
2022-08-10T03:30:55.923Z,17.48
2022-08-10T03:33:26.270Z,16.88
2022-08-10T03:36:42.045Z,16.42
2022-08-10T03:38:43.572Z,18.05
2022-08-10T03:41:14.354Z,15.45
2022-08-10T03:43:47.657Z,16.48
2022-08-10T03:46:18.466Z,16.05
2022-08-10T03:48:49.552Z,15.40
2022-08-10T03:51:18.790Z,16.35
2022-08-10T03:54:03.536Z,14.63
2022-08-10T03:56:38.501Z,15.82
2022-08-10T03:59:11.885Z,15.85
2022-08-10T04:02:52.384Z,14.95
2022-08-10T04:04:26.409Z,15.68
2022-08-10T04:06:58.355Z,15.82
2022-08-10T04:09:53.190Z,15.70
2022-08-10T04:12:17.037Z,17.20
2022-08-10T04:14:49.840Z,17.23
2022-08-10T04:18:03.133Z,18.55
2022-08-10T04:20:34.560Z,19.30
2022-08-10T04:23:08.045Z,18.13
2022-08-10T04:25:36.467Z,20.27
2022-08-10T04:28:03.869Z,18.83
2022-08-10T04:30:32.404Z,19.30
2022-08-10T04:33:02.292Z,19.30
2022-08-10T04:35:30.129Z,19.80
2022-08-10T04:37:59.246Z,18.50
2022-08-10T04:40:30.217Z,18.27
2022-08-10T04:43:12.846Z,17.20
2022-08-10T04:45:48.497Z,15.85
2022-08-10T04:48:40.724Z,16.13
2022-08-10T04:51:15.235Z,17.58
2022-08-10T04:54:04.206Z,16.60
2022-08-10T04:56:34.631Z,17.05
2022-08-10T04:59:01.401Z,18.05
2022-08-10T05:02:21.290Z,18.13
2022-08-10T05:04:36.308Z,18.90
2022-08-10T05:07:03.627Z,17.48
2022-08-10T05:09:30.485Z,19.58
2022-08-10T05:11:57.283Z,17.35
2022-08-10T05:14:24.084Z,17.05
2022-08-10T05:16:50.895Z,18.52
2022-08-10T05:19:20.207Z,18.02
2022-08-10T05:22:05.173Z,18.60
2022-08-10T05:24:32.433Z,17.67
2022-08-10T05:27:08.400Z,17.85
2022-08-10T05:29:37.627Z,17.40
2022-08-10T05:32:04.952Z,18.20
2022-08-10T05:34:31.842Z,17.77
2022-08-10T05:36:58.673Z,18.17
2022-08-10T05:39:31.786Z,18.20
2022-08-10T05:42:01.002Z,17.83
2022-08-10T05:44:29.178Z,17.42
2022-08-10T05:46:56.272Z,17.58
2022-08-10T05:49:23.130Z,16.48
2022-08-10T05:51:50.076Z,14.65
2022-08-10T05:54:17.486Z,14.77
2022-08-10T05:56:56.612Z,12.90
2022-08-10T06:00:35.540Z,13.05
2022-08-10T06:02:40.709Z,11.75
2022-08-10T06:05:13.828Z,11.73
2022-08-10T06:07:53.272Z,12.02
2022-08-10T06:10:31.479Z,12.48
2022-08-10T06:13:29.654Z,11.65
2022-08-10T06:16:01.265Z,10.02
2022-08-10T06:18:29.147Z,10.57
2022-08-10T06:20:57.442Z,10.13
2022-08-10T06:23:26.274Z,9.48
2022-08-10T06:26:11.376Z,9.52
2022-08-10T06:29:02.504Z,10.23
2022-08-10T06:31:48.032Z,9.23
2022-08-10T06:34:21.085Z,8.27
2022-08-10T06:36:48.684Z,9.00
2022-08-10T06:42:19.857Z,8.52
2022-08-10T06:45:06.113Z,8.00
2022-08-10T06:47:39.003Z,8.20
2022-08-10T06:50:44.997Z,7.65
2022-08-10T06:53:14.005Z,7.50
2022-08-10T06:55:55.149Z,7.72
2022-08-10T06:58:27.097Z,9.02
2022-08-10T07:00:56.637Z,7.90
2022-08-10T07:03:31.401Z,7.90
2022-08-10T07:06:00.615Z,7.95
2022-08-10T07:08:33.155Z,7.68
2022-08-10T07:11:02.698Z,8.13
2022-08-10T07:14:14.626Z,6.32
2022-08-10T07:16:19.654Z,6.65
2022-08-10T07:18:48.806Z,7.07
2022-08-10T07:21:18.539Z,6.88
2022-08-10T07:23:57.344Z,6.68
2022-08-10T07:26:28.869Z,7.80
2022-08-10T07:28:56.147Z,5.50
2022-08-10T07:31:54.671Z,6.45
2022-08-10T07:34:21.678Z,6.45
2022-08-10T07:37:00.020Z,6.72
2022-08-10T07:40:01.994Z,6.22
2022-08-10T07:42:20.440Z,6.07
2022-08-10T07:44:48.448Z,6.28
2022-08-10T07:47:19.929Z,6.28
2022-08-10T07:50:10.559Z,5.72
2022-08-10T07:52:40.017Z,6.45
2022-08-10T07:55:08.427Z,6.75
2022-08-10T07:57:40.286Z,5.38
2022-08-10T08:00:10.841Z,5.47
2022-08-10T08:02:52.336Z,5.07
2022-08-10T08:05:53.689Z,5.40
2022-08-10T08:08:10.623Z,5.70
2022-08-10T08:10:38.866Z,7.70
2022-08-10T08:13:06.026Z,5.43
2022-08-10T08:16:20.344Z,5.10
2022-08-10T08:18:25.363Z,5.22
2022-08-10T08:20:54.359Z,6.03
2022-08-10T08:24:10.319Z,4.65
2022-08-10T08:26:11.765Z,5.10
2022-08-10T08:28:45.595Z,5.38
2022-08-10T08:31:18.197Z,5.75
2022-08-10T08:33:46.077Z,5.82
2022-08-10T08:36:16.741Z,5.50
2022-08-10T08:38:44.573Z,6.15
2022-08-10T08:41:45.972Z,5.70
2022-08-10T08:44:31.678Z,5.55
2022-08-10T08:48:04.645Z,5.95
2022-08-10T08:50:35.785Z,6.40
2022-08-10T08:54:02.594Z,6.45
2022-08-10T08:56:51.820Z,6.78
2022-08-10T08:59:30.866Z,6.10
2022-08-10T09:02:28.821Z,7.10
2022-08-10T09:05:16.896Z,7.80
2022-08-10T09:08:05.305Z,7.22
2022-08-10T09:11:09.165Z,8.07
2022-08-10T09:13:48.889Z,7.75
2022-08-10T09:16:15.742Z,7.95
2022-08-10T09:18:46.679Z,8.85
2022-08-10T09:21:23.789Z,8.55
2022-08-10T09:24:06.008Z,8.77
2022-08-10T09:26:42.240Z,8.98
2022-08-10T09:29:13.653Z,8.90
2022-08-10T09:31:55.801Z,8.93
2022-08-10T09:36:26.580Z,10.63
2022-08-10T09:38:01.899Z,10.45
2022-08-10T09:40:59.454Z,11.10
2022-08-10T09:43:41.195Z,12.32
2022-08-10T09:46:22.429Z,12.52
2022-08-10T09:49:08.913Z,13.73
2022-08-10T09:51:55.065Z,13.20
2022-08-10T09:54:48.846Z,12.43
2022-08-10T09:57:44.643Z,13.80
2022-08-10T10:00:12.500Z,14.50
2022-08-10T10:03:00.425Z,13.35
2022-08-10T10:05:50.306Z,14.50
2022-08-10T10:08:19.116Z,14.88
2022-08-10T10:10:57.728Z,14.32
2022-08-10T10:13:41.522Z,14.88
2022-08-10T10:16:28.524Z,14.50
2022-08-10T10:19:07.944Z,14.55
2022-08-10T10:21:54.390Z,14.60
2022-08-10T10:24:30.437Z,14.70
2022-08-10T10:27:03.589Z,14.35
2022-08-10T10:29:59.565Z,14.93
2022-08-10T10:32:47.832Z,14.23
2022-08-10T10:35:38.063Z,14.65
2022-08-10T10:38:09.020Z,14.10
2022-08-10T10:41:07.138Z,14.35
2022-08-10T10:43:47.579Z,13.77
2022-08-10T10:46:37.540Z,14.73
2022-08-10T10:49:31.224Z,14.40
2022-08-10T10:52:14.502Z,14.90
2022-08-10T10:55:00.168Z,14.00
2022-08-10T10:57:58.622Z,14.35
2022-08-10T11:00:37.322Z,13.35
2022-08-10T11:03:21.579Z,14.15
2022-08-10T11:06:14.528Z,13.50
2022-08-10T11:08:47.842Z,14.13
2022-08-10T11:12:00.871Z,13.20
2022-08-10T11:14:39.225Z,14.30
2022-08-10T11:17:33.713Z,13.60
2022-08-10T11:20:27.993Z,13.13
2022-08-10T11:23:20.423Z,13.20
2022-08-10T11:26:00.852Z,13.85
2022-08-10T11:28:30.473Z,12.90
2022-08-10T11:31:10.928Z,13.05
2022-08-10T11:34:31.993Z,14.70
2022-08-10T11:36:55.047Z,15.77
2022-08-10T11:39:30.916Z,16.08
2022-08-10T11:42:08.929Z,15.98
2022-08-10T11:44:55.736Z,14.95
2022-08-10T11:47:27.577Z,14.75
2022-08-10T11:50:08.545Z,14.68
2022-08-10T11:52:51.690Z,14.88
2022-08-10T11:55:22.154Z,16.10
2022-08-10T11:57:55.139Z,15.02
2022-08-10T12:00:24.581Z,15.75
2022-08-10T12:02:55.616Z,14.60
2022-08-10T12:05:51.569Z,15.23
2022-08-10T12:10:04.377Z,14.93
2022-08-10T12:11:22.418Z,15.55
2022-08-10T12:14:23.999Z,15.00
2022-08-10T12:16:59.392Z,15.25
2022-08-10T12:20:02.012Z,15.50
2022-08-10T12:22:36.306Z,15.38
2022-08-10T12:25:07.563Z,15.32
2022-08-10T12:27:54.909Z,15.10
2022-08-10T12:30:32.389Z,14.43
2022-08-10T12:33:09.389Z,14.98
2022-08-10T12:35:56.135Z,15.02
2022-08-10T12:38:36.948Z,14.95
2022-08-10T12:41:16.264Z,15.27
2022-08-10T12:44:07.488Z,15.45
2022-08-10T12:46:41.737Z,14.57
2022-08-10T12:49:23.181Z,15.38
2022-08-10T12:52:27.508Z,14.45
2022-08-10T12:54:56.963Z,15.00
2022-08-10T12:57:26.023Z,15.05
2022-08-10T12:59:58.105Z,15.07
2022-08-10T13:02:32.941Z,16.02
2022-08-10T13:05:04.607Z,15.30
2022-08-10T13:08:03.782Z,14.25
2022-08-10T13:10:27.743Z,13.38
2022-08-10T13:12:58.068Z,14.73
2022-08-10T13:15:48.747Z,14.57
2022-08-10T13:18:26.291Z,14.25
2022-08-10T13:20:55.997Z,14.40
2022-08-10T13:23:27.066Z,14.45
2022-08-10T13:25:58.142Z,14.30
2022-08-10T13:28:40.091Z,13.70
2022-08-10T13:31:11.346Z,14.70
2022-08-10T13:34:40.106Z,14.10
2022-08-10T13:36:41.643Z,14.13
2022-08-10T13:39:09.448Z,14.40
2022-08-10T13:41:42.554Z,14.43
2022-08-10T13:44:12.857Z,14.02
2022-08-10T13:46:42.274Z,13.40
2022-08-10T13:49:11.257Z,14.15
2022-08-10T13:51:57.084Z,13.80
2022-08-10T13:54:29.545Z,14.80
2022-08-10T13:56:57.923Z,14.85
2022-08-10T14:00:33.100Z,14.05
2022-08-10T14:02:22.837Z,13.75
2022-08-10T14:04:50.675Z,13.68
2022-08-10T14:07:18.391Z,14.35
2022-08-10T14:09:47.674Z,14.50
2022-08-10T14:12:16.634Z,13.32
2022-08-10T14:14:45.299Z,14.70
2022-08-10T14:17:22.245Z,13.88
2022-08-10T14:19:58.826Z,14.25
2022-08-10T14:22:33.682Z,13.98
2022-08-10T14:25:09.558Z,14.05
2022-08-10T14:28:02.448Z,14.45
2022-08-10T14:30:30.972Z,13.63
2022-08-10T14:33:04.197Z,14.70
2022-08-10T14:36:20.490Z,14.50
2022-08-10T14:38:26.789Z,14.32
2022-08-10T14:40:57.011Z,13.65
2022-08-10T14:43:34.608Z,13.88
2022-08-10T14:46:08.207Z,13.85
2022-08-10T14:48:43.420Z,12.90
2022-08-10T14:51:15.792Z,13.65
2022-08-10T14:53:44.500Z,13.23
2022-08-10T14:56:14.509Z,13.52
2022-08-10T14:59:05.258Z,13.60
2022-08-10T15:02:00.691Z,13.52
2022-08-10T15:04:28.373Z,13.65
2022-08-10T15:07:01.261Z,13.55
2022-08-10T15:09:36.288Z,13.00
2022-08-10T15:12:27.287Z,13.70
2022-08-10T15:15:00.737Z,13.45
2022-08-10T15:17:39.485Z,13.88
2022-08-10T15:20:20.431Z,13.57
2022-08-10T15:23:30.737Z,13.20
2022-08-10T15:26:10.691Z,13.50
2022-08-10T15:29:22.385Z,13.20
2022-08-10T15:32:00.122Z,13.45
2022-08-10T15:34:47.655Z,13.40
2022-08-10T15:37:36.459Z,12.57
2022-08-10T15:40:24.243Z,12.82
2022-08-10T15:43:20.087Z,12.68
2022-08-10T15:46:03.215Z,12.40
2022-08-10T15:48:43.707Z,13.35
2022-08-10T15:51:33.707Z,12.80
2022-08-10T15:54:18.631Z,12.95
2022-08-10T15:57:18.458Z,12.90
2022-08-10T15:59:55.168Z,12.68
2022-08-10T16:02:26.097Z,12.93
2022-08-10T16:05:16.328Z,12.90
2022-08-10T16:07:50.328Z,12.20
2022-08-10T16:10:28.247Z,13.30
2022-08-10T16:13:50.366Z,12.95
2022-08-10T16:15:58.616Z,12.25
2022-08-10T16:18:28.666Z,12.90
2022-08-10T16:21:00.574Z,12.82
2022-08-10T16:23:35.090Z,12.60
2022-08-10T16:26:13.322Z,12.75
2022-08-10T16:28:56.171Z,12.98
2022-08-10T16:31:25.635Z,12.02
2022-08-10T16:33:56.538Z,12.82
2022-08-10T16:36:33.468Z,12.98
2022-08-10T16:39:01.161Z,13.10
2022-08-10T16:42:04.219Z,13.57
2022-08-10T16:44:23.438Z,12.95
2022-08-10T16:46:51.387Z,12.45
2022-08-10T16:49:19.701Z,13.02
2022-08-10T16:51:49.264Z,12.02
2022-08-10T16:54:22.374Z,12.23
2022-08-10T16:56:53.315Z,12.57
2022-08-10T16:59:24.342Z,12.65
2022-08-10T17:01:53.935Z,12.50
2022-08-10T17:04:23.616Z,12.10
2022-08-10T17:06:56.821Z,12.15
2022-08-10T17:09:33.127Z,11.45
2022-08-10T17:12:10.326Z,12.70
2022-08-10T17:14:42.649Z,12.55
2022-08-10T17:17:18.613Z,11.63
2022-08-10T17:19:45.936Z,12.15
2022-08-10T17:22:25.257Z,11.15
2022-08-10T17:25:02.042Z,11.00
2022-08-10T17:28:33.281Z,10.75
2022-08-10T17:30:35.267Z,11.18
2022-08-10T17:33:13.886Z,11.00
2022-08-10T17:35:44.041Z,11.20
2022-08-10T17:38:21.569Z,11.35
2022-08-10T17:40:52.820Z,11.10
2022-08-10T17:43:58.476Z,11.50
2022-08-10T17:46:14.648Z,11.63
2022-08-10T17:48:42.898Z,11.20
2022-08-10T17:51:15.571Z,11.85
2022-08-10T17:53:50.945Z,11.48
2022-08-10T17:56:21.070Z,12.20
2022-08-10T17:59:16.828Z,12.73
2022-08-10T18:02:01.593Z,11.73
2022-08-10T18:04:41.482Z,12.52
2022-08-10T18:07:10.957Z,12.25
2022-08-10T18:09:54.918Z,11.10
2022-08-10T18:12:36.031Z,11.90
2022-08-10T18:15:12.312Z,11.63
2022-08-10T18:17:46.050Z,11.00
2022-08-10T18:20:16.061Z,11.48
2022-08-10T18:22:50.461Z,11.40
2022-08-10T18:25:26.960Z,17.60
2022-08-10T18:28:03.766Z,18.75
2022-08-10T18:30:36.297Z,15.32
2022-08-10T18:33:10.644Z,15.50
2022-08-10T18:35:39.554Z,12.20
2022-08-10T18:38:07.730Z,11.93
2022-08-10T18:40:38.131Z,10.25
2022-08-10T18:44:08.018Z,10.70
2022-08-10T18:45:58.733Z,9.68
2022-08-10T18:48:37.231Z,9.23
2022-08-10T18:51:06.632Z,9.63
2022-08-10T18:53:38.443Z,9.40
2022-08-10T18:56:17.033Z,8.82
2022-08-10T18:59:03.189Z,8.95
2022-08-10T19:01:47.265Z,12.02
2022-08-10T19:04:48.678Z,13.18
2022-08-10T19:07:45.671Z,13.02
2022-08-10T19:10:12.436Z,10.27
2022-08-10T19:12:55.052Z,10.10
2022-08-10T19:16:00.187Z,10.05
2022-08-10T19:18:31.528Z,9.77
2022-08-10T19:21:21.305Z,8.85
2022-08-10T19:24:23.425Z,9.02
2022-08-10T19:27:19.623Z,8.63
2022-08-10T19:30:09.222Z,8.27
2022-08-10T19:33:01.368Z,8.50
2022-08-10T19:36:04.579Z,7.55
2022-08-10T19:38:34.468Z,8.30
2022-08-10T19:41:31.991Z,7.90
2022-08-10T19:44:26.824Z,8.60
2022-08-10T19:47:02.562Z,7.38
2022-08-10T19:49:49.945Z,7.93
2022-08-10T19:52:37.986Z,7.47
2022-08-10T19:55:33.329Z,6.68
2022-08-10T19:58:10.958Z,6.57
2022-08-10T20:00:46.832Z,7.10
2022-08-10T20:03:25.692Z,5.97
2022-08-10T20:06:18.148Z,9.48
2022-08-10T20:08:54.450Z,6.68
2022-08-10T20:12:04.798Z,6.90
2022-08-10T20:15:06.287Z,6.97
2022-08-10T20:17:51.479Z,6.90
2022-08-10T20:20:36.049Z,12.00
2022-08-10T20:23:12.405Z,6.47
2022-08-10T20:25:42.411Z,6.90
2022-08-10T20:28:18.633Z,7.22
2022-08-10T20:30:52.029Z,7.35
2022-08-10T20:33:34.439Z,7.45
2022-08-10T20:36:07.471Z,7.38
2022-08-10T20:38:40.408Z,7.72
2022-08-10T20:41:25.417Z,7.72
2022-08-10T20:44:09.913Z,7.53
2022-08-10T20:46:55.926Z,7.82
2022-08-10T20:49:40.663Z,7.57
2022-08-10T20:52:08.102Z,6.82
2022-08-10T20:54:42.158Z,7.38
2022-08-10T20:57:53.467Z,6.65
2022-08-10T21:00:09.940Z,7.50
2022-08-10T21:03:06.513Z,7.25
2022-08-10T21:06:31.688Z,7.38
2022-08-10T21:09:38.016Z,7.57
2022-08-10T21:12:18.289Z,7.95
2022-08-10T21:15:11.395Z,8.88
2022-08-10T21:17:56.072Z,7.55
2022-08-10T21:20:33.693Z,7.80
2022-08-10T21:23:05.832Z,7.30
2022-08-10T21:25:56.732Z,7.28
2022-08-10T21:29:08.915Z,8.32
2022-08-10T21:32:06.829Z,7.75
2022-08-10T21:35:00.948Z,7.55
2022-08-10T21:37:51.877Z,8.68
2022-08-10T21:41:17.181Z,8.02
2022-08-10T21:44:32.014Z,7.85
2022-08-10T21:48:17.381Z,8.30
2022-08-10T21:51:16.368Z,8.30
2022-08-10T21:54:25.891Z,9.45
2022-08-10T21:57:26.086Z,9.25
2022-08-10T22:00:28.563Z,9.57
2022-08-10T22:03:17.791Z,9.40
2022-08-10T22:06:09.192Z,9.50
2022-08-10T22:09:09.552Z,9.55
2022-08-10T22:12:00.901Z,9.32
2022-08-10T22:14:52.311Z,8.65
2022-08-10T22:18:00.127Z,9.20
2022-08-10T22:20:53.225Z,9.45
2022-08-10T22:23:41.603Z,9.00
2022-08-10T22:30:01.737Z,9.00
2022-08-10T22:31:26.947Z,10.63
2022-08-10T22:33:09.493Z,9.65
2022-08-10T22:36:24.411Z,9.55
2022-08-10T22:40:11.429Z,10.30
2022-08-10T22:42:59.003Z,11.02
2022-08-10T22:45:53.567Z,12.23
2022-08-10T22:48:39.465Z,11.63
2022-08-10T22:51:15.035Z,11.70
2022-08-10T22:54:06.711Z,12.25
2022-08-10T22:56:59.492Z,11.75
2022-08-10T22:59:31.912Z,12.02
2022-08-10T23:02:07.907Z,11.00
2022-08-10T23:04:44.244Z,12.25
2022-08-10T23:07:17.908Z,11.32
2022-08-10T23:10:05.612Z,11.50
2022-08-10T23:12:47.646Z,12.60
2022-08-10T23:15:56.850Z,11.27
2022-08-10T23:18:55.172Z,11.77
2022-08-10T23:21:27.405Z,10.57
2022-08-10T23:24:17.285Z,10.82
2022-08-10T23:26:45.412Z,10.85
2022-08-10T23:29:16.880Z,11.15
2022-08-10T23:31:50.255Z,10.23
2022-08-10T23:34:36.050Z,10.63
2022-08-10T23:37:06.164Z,10.35
2022-08-10T23:39:37.512Z,9.88
2022-08-10T23:42:08.526Z,10.02
2022-08-10T23:44:41.595Z,10.02
2022-08-10T23:47:10.371Z,11.82
2022-08-10T23:49:39.131Z,9.75
2022-08-10T23:52:15.679Z,9.75
2022-08-10T23:55:05.135Z,10.00
2022-08-10T23:57:35.154Z,10.13
